sensor_id;sensor_type;location;lat;lon;timestamp;P1;durP1;ratioP1;P2;durP2;ratioP2
74064;SDS011;62421;51.412;5.432;2023-05-24T00:01:45;10.27;;;2.08;;
74064;SDS011;62421;51.412;5.432;2023-05-24T00:04:11;14.20;;;2.85;;
74064;SDS011;62421;51.412;5.432;2023-05-24T00:06:38;11.82;;;2.65;;
74064;SDS011;62421;51.412;5.432;2023-05-24T00:09:04;13.73;;;3.00;;
74064;SDS011;62421;51.412;5.432;2023-05-24T00:11:29;11.30;;;2.67;;
74064;SDS011;62421;51.412;5.432;2023-05-24T00:13:55;16.00;;;2.73;;
74064;SDS011;62421;51.412;5.432;2023-05-24T00:16:21;20.00;;;3.13;;
74064;SDS011;62421;51.412;5.432;2023-05-24T00:18:46;14.03;;;2.73;;
74064;SDS011;62421;51.412;5.432;2023-05-24T00:21:12;14.57;;;2.70;;
74064;SDS011;62421;51.412;5.432;2023-05-24T00:23:38;14.65;;;2.58;;
74064;SDS011;62421;51.412;5.432;2023-05-24T00:26:04;18.03;;;3.47;;
74064;SDS011;62421;51.412;5.432;2023-05-24T00:28:30;13.70;;;3.03;;
74064;SDS011;62421;51.412;5.432;2023-05-24T00:30:56;13.68;;;2.85;;
74064;SDS011;62421;51.412;5.432;2023-05-24T00:33:22;9.83;;;2.60;;
74064;SDS011;62421;51.412;5.432;2023-05-24T00:35:48;13.30;;;3.45;;
74064;SDS011;62421;51.412;5.432;2023-05-24T00:38:15;16.33;;;4.05;;
74064;SDS011;62421;51.412;5.432;2023-05-24T00:40:41;13.93;;;3.03;;
74064;SDS011;62421;51.412;5.432;2023-05-24T00:43:06;12.20;;;3.40;;
74064;SDS011;62421;51.412;5.432;2023-05-24T00:45:31;10.13;;;2.67;;
74064;SDS011;62421;51.412;5.432;2023-05-24T00:47:57;18.57;;;3.17;;
74064;SDS011;62421;51.412;5.432;2023-05-24T00:50:22;9.50;;;2.40;;
74064;SDS011;62421;51.412;5.432;2023-05-24T00:52:48;17.00;;;4.05;;
74064;SDS011;62421;51.412;5.432;2023-05-24T00:55:15;12.55;;;2.63;;
74064;SDS011;62421;51.412;5.432;2023-05-24T00:57:41;11.13;;;3.07;;
74064;SDS011;62421;51.412;5.432;2023-05-24T01:00:06;12.13;;;2.72;;
74064;SDS011;62421;51.412;5.432;2023-05-24T01:02:32;11.77;;;3.13;;
74064;SDS011;62421;51.412;5.432;2023-05-24T01:04:58;15.07;;;2.92;;
74064;SDS011;62421;51.412;5.432;2023-05-24T01:12:35;16.17;;;3.50;;
74064;SDS011;62421;51.412;5.432;2023-05-24T01:17:46;15.82;;;3.40;;
74064;SDS011;62421;51.412;5.432;2023-05-24T01:20:25;14.40;;;2.83;;
74064;SDS011;62421;51.412;5.432;2023-05-24T01:28:32;17.45;;;3.50;;
74064;SDS011;62421;51.412;5.432;2023-05-24T01:30:59;13.48;;;3.40;;
74064;SDS011;62421;51.412;5.432;2023-05-24T01:33:25;11.67;;;3.27;;
74064;SDS011;62421;51.412;5.432;2023-05-24T01:35:51;14.73;;;3.80;;
74064;SDS011;62421;51.412;5.432;2023-05-24T01:38:16;14.47;;;4.00;;
74064;SDS011;62421;51.412;5.432;2023-05-24T01:40:41;17.33;;;4.03;;
74064;SDS011;62421;51.412;5.432;2023-05-24T01:43:15;12.77;;;3.42;;
74064;SDS011;62421;51.412;5.432;2023-05-24T01:46:00;16.67;;;3.03;;
74064;SDS011;62421;51.412;5.432;2023-05-24T01:48:57;13.10;;;3.03;;
74064;SDS011;62421;51.412;5.432;2023-05-24T01:51:30;12.32;;;3.70;;
74064;SDS011;62421;51.412;5.432;2023-05-24T01:54:03;13.95;;;3.28;;
74064;SDS011;62421;51.412;5.432;2023-05-24T01:56:30;19.42;;;3.55;;
74064;SDS011;62421;51.412;5.432;2023-05-24T01:58:57;15.80;;;4.30;;
74064;SDS011;62421;51.412;5.432;2023-05-24T02:01:23;16.25;;;4.38;;
74064;SDS011;62421;51.412;5.432;2023-05-24T02:03:50;16.83;;;3.60;;
74064;SDS011;62421;51.412;5.432;2023-05-24T02:06:16;12.75;;;3.65;;
74064;SDS011;62421;51.412;5.432;2023-05-24T02:08:41;18.10;;;4.17;;
74064;SDS011;62421;51.412;5.432;2023-05-24T02:11:06;23.83;;;4.00;;
74064;SDS011;62421;51.412;5.432;2023-05-24T02:13:32;13.40;;;3.93;;
74064;SDS011;62421;51.412;5.432;2023-05-24T02:15:57;15.63;;;3.87;;
74064;SDS011;62421;51.412;5.432;2023-05-24T02:18:22;12.90;;;3.20;;
74064;SDS011;62421;51.412;5.432;2023-05-24T02:20:48;14.87;;;3.83;;
74064;SDS011;62421;51.412;5.432;2023-05-24T02:23:13;15.43;;;4.93;;
74064;SDS011;62421;51.412;5.432;2023-05-24T02:25:39;14.98;;;3.65;;
74064;SDS011;62421;51.412;5.432;2023-05-24T02:28:04;9.80;;;2.97;;
74064;SDS011;62421;51.412;5.432;2023-05-24T02:30:30;13.83;;;4.47;;
74064;SDS011;62421;51.412;5.432;2023-05-24T02:32:55;11.80;;;3.47;;
74064;SDS011;62421;51.412;5.432;2023-05-24T02:35:21;15.82;;;4.03;;
74064;SDS011;62421;51.412;5.432;2023-05-24T02:37:46;15.03;;;3.87;;
74064;SDS011;62421;51.412;5.432;2023-05-24T02:40:12;15.37;;;3.60;;
74064;SDS011;62421;51.412;5.432;2023-05-24T02:42:37;16.87;;;3.73;;
74064;SDS011;62421;51.412;5.432;2023-05-24T02:45:03;12.85;;;3.38;;
74064;SDS011;62421;51.412;5.432;2023-05-24T02:47:28;12.00;;;4.03;;
74064;SDS011;62421;51.412;5.432;2023-05-24T02:49:54;15.83;;;3.93;;
74064;SDS011;62421;51.412;5.432;2023-05-24T02:52:20;13.02;;;4.32;;
74064;SDS011;62421;51.412;5.432;2023-05-24T02:54:47;13.27;;;4.65;;
74064;SDS011;62421;51.412;5.432;2023-05-24T02:57:13;12.73;;;3.83;;
74064;SDS011;62421;51.412;5.432;2023-05-24T02:59:38;15.93;;;4.47;;
74064;SDS011;62421;51.412;5.432;2023-05-24T03:02:03;21.43;;;5.17;;
74064;SDS011;62421;51.412;5.432;2023-05-24T03:04:29;14.03;;;4.37;;
74064;SDS011;62421;51.412;5.432;2023-05-24T03:06:54;10.80;;;4.30;;
74064;SDS011;62421;51.412;5.432;2023-05-24T03:09:20;19.73;;;4.77;;
74064;SDS011;62421;51.412;5.432;2023-05-24T03:11:45;18.13;;;4.88;;
74064;SDS011;62421;51.412;5.432;2023-05-24T03:14:11;20.48;;;4.72;;
74064;SDS011;62421;51.412;5.432;2023-05-24T03:16:36;23.43;;;5.00;;
74064;SDS011;62421;51.412;5.432;2023-05-24T03:19:02;19.93;;;5.00;;
74064;SDS011;62421;51.412;5.432;2023-05-24T03:21:27;13.20;;;3.97;;
74064;SDS011;62421;51.412;5.432;2023-05-24T03:23:53;18.77;;;5.27;;
74064;SDS011;62421;51.412;5.432;2023-05-24T03:26:18;12.53;;;4.20;;
74064;SDS011;62421;51.412;5.432;2023-05-24T03:28:44;13.40;;;4.30;;
74064;SDS011;62421;51.412;5.432;2023-05-24T03:31:11;16.37;;;5.07;;
74064;SDS011;62421;51.412;5.432;2023-05-24T03:33:36;12.25;;;3.88;;
74064;SDS011;62421;51.412;5.432;2023-05-24T03:36:02;16.37;;;4.93;;
74064;SDS011;62421;51.412;5.432;2023-05-24T03:38:28;23.77;;;5.10;;
74064;SDS011;62421;51.412;5.432;2023-05-24T03:40:53;16.30;;;4.67;;
74064;SDS011;62421;51.412;5.432;2023-05-24T03:43:19;20.02;;;4.53;;
74064;SDS011;62421;51.412;5.432;2023-05-24T03:45:45;16.02;;;5.03;;
74064;SDS011;62421;51.412;5.432;2023-05-24T03:48:10;22.20;;;4.83;;
74064;SDS011;62421;51.412;5.432;2023-05-24T03:50:35;17.90;;;4.63;;
74064;SDS011;62421;51.412;5.432;2023-05-24T03:53:01;14.87;;;3.77;;
74064;SDS011;62421;51.412;5.432;2023-05-24T03:55:26;17.27;;;4.90;;
74064;SDS011;62421;51.412;5.432;2023-05-24T03:57:52;18.63;;;4.57;;
74064;SDS011;62421;51.412;5.432;2023-05-24T04:00:17;24.57;;;5.70;;
74064;SDS011;62421;51.412;5.432;2023-05-24T04:02:43;17.83;;;5.65;;
74064;SDS011;62421;51.412;5.432;2023-05-24T04:05:09;19.58;;;5.13;;
74064;SDS011;62421;51.412;5.432;2023-05-24T04:07:37;11.63;;;4.67;;
74064;SDS011;62421;51.412;5.432;2023-05-24T04:10:04;18.90;;;4.63;;
74064;SDS011;62421;51.412;5.432;2023-05-24T04:12:31;18.45;;;4.72;;
74064;SDS011;62421;51.412;5.432;2023-05-24T04:14:57;20.83;;;4.57;;
74064;SDS011;62421;51.412;5.432;2023-05-24T04:17:23;14.55;;;4.95;;
74064;SDS011;62421;51.412;5.432;2023-05-24T04:19:49;17.80;;;5.28;;
74064;SDS011;62421;51.412;5.432;2023-05-24T04:22:17;15.82;;;4.95;;
74064;SDS011;62421;51.412;5.432;2023-05-24T04:24:43;19.85;;;5.20;;
74064;SDS011;62421;51.412;5.432;2023-05-24T04:27:09;15.30;;;5.18;;
74064;SDS011;62421;51.412;5.432;2023-05-24T04:29:35;16.80;;;4.83;;
74064;SDS011;62421;51.412;5.432;2023-05-24T04:32:01;21.77;;;5.43;;
74064;SDS011;62421;51.412;5.432;2023-05-24T04:34:27;23.03;;;5.83;;
74064;SDS011;62421;51.412;5.432;2023-05-24T04:36:54;26.45;;;5.07;;
74064;SDS011;62421;51.412;5.432;2023-05-24T04:39:19;20.48;;;5.25;;
74064;SDS011;62421;51.412;5.432;2023-05-24T04:41:45;23.52;;;5.88;;
74064;SDS011;62421;51.412;5.432;2023-05-24T04:44:10;21.38;;;4.68;;
74064;SDS011;62421;51.412;5.432;2023-05-24T04:46:36;21.20;;;5.87;;
74064;SDS011;62421;51.412;5.432;2023-05-24T04:49:01;14.47;;;4.67;;
74064;SDS011;62421;51.412;5.432;2023-05-24T04:51:27;26.30;;;6.00;;
74064;SDS011;62421;51.412;5.432;2023-05-24T04:53:52;16.20;;;4.45;;
74064;SDS011;62421;51.412;5.432;2023-05-24T04:56:18;28.33;;;4.97;;
74064;SDS011;62421;51.412;5.432;2023-05-24T04:58:44;16.00;;;4.47;;
74064;SDS011;62421;51.412;5.432;2023-05-24T05:01:09;18.87;;;4.53;;
74064;SDS011;62421;51.412;5.432;2023-05-24T05:03:34;16.63;;;4.70;;
74064;SDS011;62421;51.412;5.432;2023-05-24T05:06:00;18.33;;;4.68;;
74064;SDS011;62421;51.412;5.432;2023-05-24T05:08:25;12.00;;;3.63;;
74064;SDS011;62421;51.412;5.432;2023-05-24T05:10:50;17.70;;;4.13;;
74064;SDS011;62421;51.412;5.432;2023-05-24T05:13:16;17.55;;;4.18;;
74064;SDS011;62421;51.412;5.432;2023-05-24T05:15:42;18.20;;;4.50;;
74064;SDS011;62421;51.412;5.432;2023-05-24T05:18:07;17.37;;;3.97;;
74064;SDS011;62421;51.412;5.432;2023-05-24T05:20:32;22.83;;;4.67;;
74064;SDS011;62421;51.412;5.432;2023-05-24T05:22:58;16.57;;;4.50;;
74064;SDS011;62421;51.412;5.432;2023-05-24T05:25:23;19.47;;;4.97;;
74064;SDS011;62421;51.412;5.432;2023-05-24T05:27:49;20.40;;;5.10;;
74064;SDS011;62421;51.412;5.432;2023-05-24T05:30:14;21.00;;;5.13;;
74064;SDS011;62421;51.412;5.432;2023-05-24T05:32:39;25.92;;;5.75;;
74064;SDS011;62421;51.412;5.432;2023-05-24T05:35:05;22.10;;;5.57;;
74064;SDS011;62421;51.412;5.432;2023-05-24T05:37:31;21.70;;;5.87;;
74064;SDS011;62421;51.412;5.432;2023-05-24T05:39:56;23.83;;;5.60;;
74064;SDS011;62421;51.412;5.432;2023-05-24T05:42:22;24.85;;;5.75;;
74064;SDS011;62421;51.412;5.432;2023-05-24T05:44:47;30.73;;;5.33;;
74064;SDS011;62421;51.412;5.432;2023-05-24T05:47:13;17.13;;;5.40;;
74064;SDS011;62421;51.412;5.432;2023-05-24T05:49:38;24.50;;;6.30;;
74064;SDS011;62421;51.412;5.432;2023-05-24T05:52:04;29.73;;;6.90;;
74064;SDS011;62421;51.412;5.432;2023-05-24T05:54:30;31.97;;;5.53;;
74064;SDS011;62421;51.412;5.432;2023-05-24T05:56:55;29.88;;;5.63;;
74064;SDS011;62421;51.412;5.432;2023-05-24T05:59:21;29.23;;;5.85;;
74064;SDS011;62421;51.412;5.432;2023-05-24T06:01:46;26.75;;;5.65;;
74064;SDS011;62421;51.412;5.432;2023-05-24T06:04:13;25.73;;;5.97;;
74064;SDS011;62421;51.412;5.432;2023-05-24T06:06:39;21.45;;;5.43;;
74064;SDS011;62421;51.412;5.432;2023-05-24T06:09:04;27.83;;;7.13;;
74064;SDS011;62421;51.412;5.432;2023-05-24T06:11:30;28.90;;;5.55;;
74064;SDS011;62421;51.412;5.432;2023-05-24T06:13:55;22.13;;;7.13;;
74064;SDS011;62421;51.412;5.432;2023-05-24T06:16:21;24.40;;;5.80;;
74064;SDS011;62421;51.412;5.432;2023-05-24T06:18:46;26.53;;;5.90;;
74064;SDS011;62421;51.412;5.432;2023-05-24T06:21:13;26.33;;;5.93;;
74064;SDS011;62421;51.412;5.432;2023-05-24T06:23:38;24.50;;;5.90;;
74064;SDS011;62421;51.412;5.432;2023-05-24T06:26:04;31.00;;;5.60;;
74064;SDS011;62421;51.412;5.432;2023-05-24T06:28:33;31.08;;;5.78;;
74064;SDS011;62421;51.412;5.432;2023-05-24T06:30:59;29.98;;;6.80;;
74064;SDS011;62421;51.412;5.432;2023-05-24T06:33:24;30.13;;;5.67;;
74064;SDS011;62421;51.412;5.432;2023-05-24T06:35:52;22.67;;;5.38;;
74064;SDS011;62421;51.412;5.432;2023-05-24T06:38:17;35.53;;;6.60;;
74064;SDS011;62421;51.412;5.432;2023-05-24T06:40:43;29.60;;;6.20;;
74064;SDS011;62421;51.412;5.432;2023-05-24T06:43:08;23.57;;;6.63;;
74064;SDS011;62421;51.412;5.432;2023-05-24T06:45:33;26.53;;;6.07;;
74064;SDS011;62421;51.412;5.432;2023-05-24T06:47:59;28.87;;;7.20;;
74064;SDS011;62421;51.412;5.432;2023-05-24T06:50:24;25.27;;;6.00;;
74064;SDS011;62421;51.412;5.432;2023-05-24T06:52:50;29.90;;;6.30;;
74064;SDS011;62421;51.412;5.432;2023-05-24T06:55:15;21.60;;;6.97;;
74064;SDS011;62421;51.412;5.432;2023-05-24T06:57:40;24.57;;;6.30;;
74064;SDS011;62421;51.412;5.432;2023-05-24T07:00:06;26.63;;;6.07;;
74064;SDS011;62421;51.412;5.432;2023-05-24T07:02:35;32.90;;;6.72;;
74064;SDS011;62421;51.412;5.432;2023-05-24T07:05:01;19.83;;;5.63;;
74064;SDS011;62421;51.412;5.432;2023-05-24T07:07:26;27.63;;;6.00;;
74064;SDS011;62421;51.412;5.432;2023-05-24T07:09:52;17.98;;;6.47;;
74064;SDS011;62421;51.412;5.432;2023-05-24T07:12:17;21.95;;;5.65;;
74064;SDS011;62421;51.412;5.432;2023-05-24T07:14:42;23.20;;;6.63;;
74064;SDS011;62421;51.412;5.432;2023-05-24T07:17:08;26.27;;;8.43;;
74064;SDS011;62421;51.412;5.432;2023-05-24T07:19:33;22.47;;;6.83;;
74064;SDS011;62421;51.412;5.432;2023-05-24T07:22:00;37.13;;;7.80;;
74064;SDS011;62421;51.412;5.432;2023-05-24T07:24:25;21.30;;;7.10;;
74064;SDS011;62421;51.412;5.432;2023-05-24T07:26:50;28.00;;;8.37;;
74064;SDS011;62421;51.412;5.432;2023-05-24T07:29:17;23.40;;;8.38;;
74064;SDS011;62421;51.412;5.432;2023-05-24T07:31:43;35.95;;;9.60;;
74064;SDS011;62421;51.412;5.432;2023-05-24T07:34:09;22.58;;;7.90;;
74064;SDS011;62421;51.412;5.432;2023-05-24T07:36:34;31.65;;;7.85;;
74064;SDS011;62421;51.412;5.432;2023-05-24T07:39:00;25.15;;;6.72;;
74064;SDS011;62421;51.412;5.432;2023-05-24T07:41:27;20.17;;;7.07;;
74064;SDS011;62421;51.412;5.432;2023-05-24T07:43:54;23.38;;;6.22;;
74064;SDS011;62421;51.412;5.432;2023-05-24T07:46:19;25.45;;;6.55;;
74064;SDS011;62421;51.412;5.432;2023-05-24T07:48:45;20.43;;;6.27;;
74064;SDS011;62421;51.412;5.432;2023-05-24T07:51:10;18.07;;;4.83;;
74064;SDS011;62421;51.412;5.432;2023-05-24T07:53:36;18.80;;;4.90;;
74064;SDS011;62421;51.412;5.432;2023-05-24T07:56:02;19.50;;;6.03;;
74064;SDS011;62421;51.412;5.432;2023-05-24T07:58:27;19.37;;;5.37;;
74064;SDS011;62421;51.412;5.432;2023-05-24T08:00:53;27.02;;;5.80;;
74064;SDS011;62421;51.412;5.432;2023-05-24T08:03:18;18.30;;;4.83;;
74064;SDS011;62421;51.412;5.432;2023-05-24T08:05:44;20.70;;;5.07;;
74064;SDS011;62421;51.412;5.432;2023-05-24T08:08:09;24.27;;;5.20;;
74064;SDS011;62421;51.412;5.432;2023-05-24T08:10:35;15.75;;;4.55;;
74064;SDS011;62421;51.412;5.432;2023-05-24T08:13:01;17.50;;;4.50;;
74064;SDS011;62421;51.412;5.432;2023-05-24T08:15:27;15.23;;;3.80;;
74064;SDS011;62421;51.412;5.432;2023-05-24T08:17:52;18.33;;;4.73;;
74064;SDS011;62421;51.412;5.432;2023-05-24T08:20:18;19.40;;;4.50;;
74064;SDS011;62421;51.412;5.432;2023-05-24T08:22:43;14.93;;;3.80;;
74064;SDS011;62421;51.412;5.432;2023-05-24T08:25:09;12.40;;;3.60;;
74064;SDS011;62421;51.412;5.432;2023-05-24T08:27:38;17.50;;;4.00;;
74064;SDS011;62421;51.412;5.432;2023-05-24T08:30:04;17.20;;;4.47;;
74064;SDS011;62421;51.412;5.432;2023-05-24T08:32:30;18.00;;;4.47;;
74064;SDS011;62421;51.412;5.432;2023-05-24T08:34:56;18.03;;;5.03;;
74064;SDS011;62421;51.412;5.432;2023-05-24T08:37:21;23.27;;;4.87;;
74064;SDS011;62421;51.412;5.432;2023-05-24T08:39:47;12.73;;;3.53;;
74064;SDS011;62421;51.412;5.432;2023-05-24T08:42:13;16.90;;;4.17;;
74064;SDS011;62421;51.412;5.432;2023-05-24T08:44:46;12.95;;;4.05;;
74064;SDS011;62421;51.412;5.432;2023-05-24T08:47:13;21.50;;;4.33;;
74064;SDS011;62421;51.412;5.432;2023-05-24T08:49:39;17.75;;;3.35;;
74064;SDS011;62421;51.412;5.432;2023-05-24T08:52:05;15.52;;;3.17;;
74064;SDS011;62421;51.412;5.432;2023-05-24T08:54:35;18.23;;;3.42;;
74064;SDS011;62421;51.412;5.432;2023-05-24T08:57:01;10.75;;;3.08;;
74064;SDS011;62421;51.412;5.432;2023-05-24T08:59:27;11.63;;;3.10;;
74064;SDS011;62421;51.412;5.432;2023-05-24T09:01:52;16.97;;;3.00;;
74064;SDS011;62421;51.412;5.432;2023-05-24T09:04:19;16.40;;;3.13;;
74064;SDS011;62421;51.412;5.432;2023-05-24T09:06:46;14.60;;;3.75;;
74064;SDS011;62421;51.412;5.432;2023-05-24T09:09:13;13.77;;;4.07;;
74064;SDS011;62421;51.412;5.432;2023-05-24T09:11:42;14.13;;;3.65;;
74064;SDS011;62421;51.412;5.432;2023-05-24T09:14:09;14.10;;;3.95;;
74064;SDS011;62421;51.412;5.432;2023-05-24T09:16:35;17.48;;;3.92;;
74064;SDS011;62421;51.412;5.432;2023-05-24T09:19:00;15.27;;;3.47;;
74064;SDS011;62421;51.412;5.432;2023-05-24T09:21:27;20.60;;;3.92;;
74064;SDS011;62421;51.412;5.432;2023-05-24T09:23:53;14.85;;;3.65;;
74064;SDS011;62421;51.412;5.432;2023-05-24T09:26:19;17.27;;;3.60;;
74064;SDS011;62421;51.412;5.432;2023-05-24T09:28:45;12.82;;;3.60;;
74064;SDS011;62421;51.412;5.432;2023-05-24T09:31:11;18.63;;;4.07;;
74064;SDS011;62421;51.412;5.432;2023-05-24T09:33:37;18.08;;;3.40;;
74064;SDS011;62421;51.412;5.432;2023-05-24T09:36:03;15.32;;;4.20;;
74064;SDS011;62421;51.412;5.432;2023-05-24T09:38:31;24.38;;;4.13;;
74064;SDS011;62421;51.412;5.432;2023-05-24T09:41:04;14.53;;;3.67;;
74064;SDS011;62421;51.412;5.432;2023-05-24T09:43:31;14.98;;;3.72;;
74064;SDS011;62421;51.412;5.432;2023-05-24T09:46:03;18.90;;;3.83;;
74064;SDS011;62421;51.412;5.432;2023-05-24T09:48:28;18.17;;;3.88;;
74064;SDS011;62421;51.412;5.432;2023-05-24T09:51:04;19.55;;;4.28;;
74064;SDS011;62421;51.412;5.432;2023-05-24T09:53:34;15.65;;;3.72;;
74064;SDS011;62421;51.412;5.432;2023-05-24T09:56:04;13.88;;;3.53;;
74064;SDS011;62421;51.412;5.432;2023-05-24T09:58:32;15.48;;;4.53;;
74064;SDS011;62421;51.412;5.432;2023-05-24T10:01:07;11.50;;;3.33;;
74064;SDS011;62421;51.412;5.432;2023-05-24T10:03:51;17.48;;;3.70;;
74064;SDS011;62421;51.412;5.432;2023-05-24T10:06:17;16.27;;;3.65;;
74064;SDS011;62421;51.412;5.432;2023-05-24T10:08:43;16.77;;;4.03;;
74064;SDS011;62421;51.412;5.432;2023-05-24T10:11:08;16.20;;;3.72;;
74064;SDS011;62421;51.412;5.432;2023-05-24T10:13:34;15.13;;;4.47;;
74064;SDS011;62421;51.412;5.432;2023-05-24T10:16:01;14.85;;;4.03;;
74064;SDS011;62421;51.412;5.432;2023-05-24T10:18:27;13.60;;;2.90;;
74064;SDS011;62421;51.412;5.432;2023-05-24T10:20:53;16.63;;;3.63;;
74064;SDS011;62421;51.412;5.432;2023-05-24T10:23:21;13.20;;;3.55;;
74064;SDS011;62421;51.412;5.432;2023-05-24T10:25:49;13.38;;;3.72;;
74064;SDS011;62421;51.412;5.432;2023-05-24T10:28:19;14.52;;;3.55;;
74064;SDS011;62421;51.412;5.432;2023-05-24T10:33:50;13.68;;;3.20;;
74064;SDS011;62421;51.412;5.432;2023-05-24T10:36:16;16.50;;;3.67;;
74064;SDS011;62421;51.412;5.432;2023-05-24T10:38:45;13.63;;;3.35;;
74064;SDS011;62421;51.412;5.432;2023-05-24T10:41:11;16.10;;;3.10;;
74064;SDS011;62421;51.412;5.432;2023-05-24T10:43:37;12.32;;;3.13;;
74064;SDS011;62421;51.412;5.432;2023-05-24T10:46:03;13.15;;;2.85;;
74064;SDS011;62421;51.412;5.432;2023-05-24T10:48:33;14.00;;;3.47;;
74064;SDS011;62421;51.412;5.432;2023-05-24T10:51:26;12.40;;;3.33;;
74064;SDS011;62421;51.412;5.432;2023-05-24T10:54:21;9.38;;;2.63;;
74064;SDS011;62421;51.412;5.432;2023-05-24T10:56:49;15.07;;;3.60;;
74064;SDS011;62421;51.412;5.432;2023-05-24T10:59:27;14.60;;;2.78;;
74064;SDS011;62421;51.412;5.432;2023-05-24T11:01:55;11.02;;;2.35;;
74064;SDS011;62421;51.412;5.432;2023-05-24T11:04:22;16.17;;;3.00;;
74064;SDS011;62421;51.412;5.432;2023-05-24T11:09:16;14.57;;;3.17;;
74064;SDS011;62421;51.412;5.432;2023-05-24T11:11:44;11.07;;;3.63;;
74064;SDS011;62421;51.412;5.432;2023-05-24T11:14:12;15.05;;;3.70;;
74064;SDS011;62421;51.412;5.432;2023-05-24T11:16:38;19.00;;;3.70;;
74064;SDS011;62421;51.412;5.432;2023-05-24T11:19:15;15.23;;;3.07;;
74064;SDS011;62421;51.412;5.432;2023-05-24T11:21:48;11.25;;;2.60;;
74064;SDS011;62421;51.412;5.432;2023-05-24T11:24:19;13.95;;;3.25;;
74064;SDS011;62421;51.412;5.432;2023-05-24T11:26:45;16.17;;;2.90;;
74064;SDS011;62421;51.412;5.432;2023-05-24T11:29:14;12.53;;;2.60;;
74064;SDS011;62421;51.412;5.432;2023-05-24T11:34:22;13.68;;;3.35;;
74064;SDS011;62421;51.412;5.432;2023-05-24T11:36:48;15.07;;;2.53;;
74064;SDS011;62421;51.412;5.432;2023-05-24T11:39:16;10.50;;;2.60;;
74064;SDS011;62421;51.412;5.432;2023-05-24T11:41:42;10.40;;;3.38;;
74064;SDS011;62421;51.412;5.432;2023-05-24T11:44:08;16.93;;;3.43;;
74064;SDS011;62421;51.412;5.432;2023-05-24T11:46:34;11.15;;;2.80;;
74064;SDS011;62421;51.412;5.432;2023-05-24T11:49:00;18.50;;;3.25;;
74064;SDS011;62421;51.412;5.432;2023-05-24T11:51:31;9.93;;;2.72;;
74064;SDS011;62421;51.412;5.432;2023-05-24T11:53:59;17.50;;;3.10;;
74064;SDS011;62421;51.412;5.432;2023-05-24T11:56:25;15.88;;;3.50;;
74064;SDS011;62421;51.412;5.432;2023-05-24T11:58:53;12.52;;;2.92;;
74064;SDS011;62421;51.412;5.432;2023-05-24T12:01:28;16.20;;;3.60;;
74064;SDS011;62421;51.412;5.432;2023-05-24T12:03:53;12.60;;;3.10;;
74064;SDS011;62421;51.412;5.432;2023-05-24T12:06:19;16.00;;;3.27;;
74064;SDS011;62421;51.412;5.432;2023-05-24T12:08:46;12.30;;;2.97;;
74064;SDS011;62421;51.412;5.432;2023-05-24T12:11:12;13.02;;;3.13;;
74064;SDS011;62421;51.412;5.432;2023-05-24T12:13:38;17.90;;;2.93;;
74064;SDS011;62421;51.412;5.432;2023-05-24T12:16:04;10.98;;;2.55;;
74064;SDS011;62421;51.412;5.432;2023-05-24T12:18:30;10.82;;;2.70;;
74064;SDS011;62421;51.412;5.432;2023-05-24T12:20:56;14.75;;;4.03;;
74064;SDS011;62421;51.412;5.432;2023-05-24T12:23:22;14.90;;;2.83;;
74064;SDS011;62421;51.412;5.432;2023-05-24T12:25:49;14.52;;;2.90;;
74064;SDS011;62421;51.412;5.432;2023-05-24T12:28:15;20.57;;;2.97;;
74064;SDS011;62421;51.412;5.432;2023-05-24T12:30:47;15.05;;;3.40;;
74064;SDS011;62421;51.412;5.432;2023-05-24T12:33:13;16.00;;;3.78;;
74064;SDS011;62421;51.412;5.432;2023-05-24T12:35:39;13.97;;;3.33;;
74064;SDS011;62421;51.412;5.432;2023-05-24T12:38:07;13.70;;;3.05;;
74064;SDS011;62421;51.412;5.432;2023-05-24T12:40:34;14.37;;;3.40;;
74064;SDS011;62421;51.412;5.432;2023-05-24T12:42:59;17.08;;;3.83;;
74064;SDS011;62421;51.412;5.432;2023-05-24T12:45:25;15.53;;;2.80;;
74064;SDS011;62421;51.412;5.432;2023-05-24T12:47:55;16.50;;;3.38;;
74064;SDS011;62421;51.412;5.432;2023-05-24T12:50:22;18.53;;;3.50;;
74064;SDS011;62421;51.412;5.432;2023-05-24T12:52:49;13.43;;;3.10;;
74064;SDS011;62421;51.412;5.432;2023-05-24T12:55:17;12.95;;;2.80;;
74064;SDS011;62421;51.412;5.432;2023-05-24T12:57:50;12.80;;;2.67;;
74064;SDS011;62421;51.412;5.432;2023-05-24T13:00:18;13.27;;;3.75;;
74064;SDS011;62421;51.412;5.432;2023-05-24T13:02:45;13.10;;;3.93;;
74064;SDS011;62421;51.412;5.432;2023-05-24T13:05:11;15.60;;;3.92;;
74064;SDS011;62421;51.412;5.432;2023-05-24T13:07:36;15.32;;;3.47;;
74064;SDS011;62421;51.412;5.432;2023-05-24T13:10:03;12.88;;;3.30;;
74064;SDS011;62421;51.412;5.432;2023-05-24T13:12:28;17.27;;;3.60;;
74064;SDS011;62421;51.412;5.432;2023-05-24T13:14:54;12.53;;;3.70;;
74064;SDS011;62421;51.412;5.432;2023-05-24T13:17:19;12.50;;;3.70;;
74064;SDS011;62421;51.412;5.432;2023-05-24T13:19:45;21.30;;;4.20;;
74064;SDS011;62421;51.412;5.432;2023-05-24T13:22:11;16.73;;;3.90;;
74064;SDS011;62421;51.412;5.432;2023-05-24T13:24:37;12.68;;;3.95;;
74064;SDS011;62421;51.412;5.432;2023-05-24T13:27:02;13.50;;;3.83;;
74064;SDS011;62421;51.412;5.432;2023-05-24T13:29:29;17.17;;;4.10;;
74064;SDS011;62421;51.412;5.432;2023-05-24T13:31:54;15.57;;;4.07;;
74064;SDS011;62421;51.412;5.432;2023-05-24T13:34:20;14.40;;;3.70;;
74064;SDS011;62421;51.412;5.432;2023-05-24T13:36:48;9.73;;;3.08;;
74064;SDS011;62421;51.412;5.432;2023-05-24T13:39:13;10.97;;;3.20;;
74064;SDS011;62421;51.412;5.432;2023-05-24T13:41:39;11.53;;;3.43;;
74064;SDS011;62421;51.412;5.432;2023-05-24T13:44:05;14.80;;;3.73;;
74064;SDS011;62421;51.412;5.432;2023-05-24T13:46:31;17.08;;;4.13;;
74064;SDS011;62421;51.412;5.432;2023-05-24T13:48:56;18.70;;;3.83;;
74064;SDS011;62421;51.412;5.432;2023-05-24T13:51:22;16.50;;;3.13;;
74064;SDS011;62421;51.412;5.432;2023-05-24T13:53:48;12.52;;;3.40;;
74064;SDS011;62421;51.412;5.432;2023-05-24T13:56:14;15.30;;;4.13;;
74064;SDS011;62421;51.412;5.432;2023-05-24T13:58:40;10.32;;;3.17;;
74064;SDS011;62421;51.412;5.432;2023-05-24T14:01:05;12.17;;;3.40;;
74064;SDS011;62421;51.412;5.432;2023-05-24T14:03:31;18.52;;;3.63;;
74064;SDS011;62421;51.412;5.432;2023-05-24T14:05:57;17.40;;;4.13;;
74064;SDS011;62421;51.412;5.432;2023-05-24T14:08:23;12.30;;;3.10;;
74064;SDS011;62421;51.412;5.432;2023-05-24T14:10:49;16.95;;;3.40;;
74064;SDS011;62421;51.412;5.432;2023-05-24T14:13:15;13.27;;;3.33;;
74064;SDS011;62421;51.412;5.432;2023-05-24T14:15:40;10.67;;;3.20;;
74064;SDS011;62421;51.412;5.432;2023-05-24T14:18:06;12.30;;;3.50;;
74064;SDS011;62421;51.412;5.432;2023-05-24T14:20:34;16.57;;;3.70;;
74064;SDS011;62421;51.412;5.432;2023-05-24T14:23:01;17.70;;;3.85;;
74064;SDS011;62421;51.412;5.432;2023-05-24T14:25:27;15.77;;;4.00;;
74064;SDS011;62421;51.412;5.432;2023-05-24T14:27:53;8.77;;;2.77;;
74064;SDS011;62421;51.412;5.432;2023-05-24T14:30:18;11.27;;;3.23;;
74064;SDS011;62421;51.412;5.432;2023-05-24T14:32:44;12.37;;;3.47;;
74064;SDS011;62421;51.412;5.432;2023-05-24T14:35:09;9.88;;;2.33;;
74064;SDS011;62421;51.412;5.432;2023-05-24T14:37:35;12.40;;;2.17;;
74064;SDS011;62421;51.412;5.432;2023-05-24T14:40:00;12.40;;;3.33;;
74064;SDS011;62421;51.412;5.432;2023-05-24T14:42:25;10.73;;;2.90;;
74064;SDS011;62421;51.412;5.432;2023-05-24T14:44:51;9.52;;;3.78;;
74064;SDS011;62421;51.412;5.432;2023-05-24T14:47:16;9.70;;;3.13;;
74064;SDS011;62421;51.412;5.432;2023-05-24T14:49:41;14.40;;;3.50;;
74064;SDS011;62421;51.412;5.432;2023-05-24T14:52:07;12.43;;;2.87;;
74064;SDS011;62421;51.412;5.432;2023-05-24T14:54:32;11.23;;;2.60;;